Time;durP1;ratioP1;P1;durP2;ratioP2;P2;SDS_P1;SDS_P2;PMS_P1;PMS_P2;Temp;Humidity;BMP_temperature;BMP_pressure;BME280_temperature;BME280_humidity;BME280_pressure;Samples;Min_cycle;Max_cycle;Signal;HPM_P1;HPM_P2
2021/10/11 00:00:35;;;;;;;32.97;15.37;;;;;;;;;;5071743;28;20044;-66
2021/10/11 00:03:00;;;;;;;34.65;15.90;;;;;;;;;;5071470;28;20334;-67
2021/10/11 00:05:25;;;;;;;33.43;16.60;;;;;;;;;;5071897;28;20020;-64
2021/10/11 00:07:51;;;;;;;41.53;18.00;;;;;;;;;;5071947;28;20627;-66
2021/10/11 00:10:19;;;;;;;36.28;17.02;;;;;;;;;;5071563;28;20016;-65
2021/10/11 00:12:48;;;;;;;32.00;16.92;;;;;;;;;;5070889;28;20116;-65
2021/10/11 00:15:13;;;;;;;30.05;16.65;;;;;;;;;;5071518;28;20016;-64
2021/10/11 00:17:39;;;;;;;35.05;16.13;;;;;;;;;;5071176;28;20083;-64
2021/10/11 00:20:04;;;;;;;31.65;16.77;;;;;;;;;;5071588;28;20388;-64
2021/10/11 00:22:29;;;;;;;40.05;16.77;;;;;;;;;;5070385;28;20024;-64
2021/10/11 00:24:54;;;;;;;38.10;18.13;;;;;;;;;;5069687;28;20027;-65
2021/10/11 00:27:20;;;;;;;40.70;20.08;;;;;;;;;;5070705;28;20082;-65
2021/10/11 00:29:45;;;;;;;40.87;19.97;;;;;;;;;;5071030;28;20028;-64
2021/10/11 00:32:10;;;;;;;42.47;19.95;;;;;;;;;;5071138;28;20778;-64
2021/10/11 00:34:36;;;;;;;42.75;20.90;;;;;;;;;;5080623;28;20118;-64
2021/10/11 00:37:01;;;;;;;31.83;17.77;;;;;;;;;;5091159;28;20024;-65
2021/10/11 00:39:26;;;;;;;38.13;17.65;;;;;;;;;;5091316;28;20460;-65
2021/10/11 00:41:51;;;;;;;37.03;18.88;;;;;;;;;;5071744;28;20063;-64
2021/10/11 00:44:17;;;;;;;37.13;19.93;;;;;;;;;;5070946;28;20016;-65
2021/10/11 00:46:42;;;;;;;38.08;20.05;;;;;;;;;;5071294;28;20501;-63
2021/10/11 00:49:07;;;;;;;48.47;21.40;;;;;;;;;;5070645;28;20021;-65
2021/10/11 00:51:32;;;;;;;43.97;20.30;;;;;;;;;;5070788;28;20272;-64
2021/10/11 00:53:58;;;;;;;39.22;19.45;;;;;;;;;;5070370;28;20023;-65
2021/10/11 00:56:23;;;;;;;35.00;18.55;;;;;;;;;;5070396;28;20074;-65
2021/10/11 00:58:48;;;;;;;40.25;18.48;;;;;;;;;;5069814;28;20365;-64
2021/10/11 01:01:14;;;;;;;39.13;20.23;;;;;;;;;;5070725;28;20149;-64
2021/10/11 01:03:39;;;;;;;37.03;18.27;;;;;;;;;;5070644;28;20028;-65
2021/10/11 01:06:04;;;;;;;37.90;19.33;;;;;;;;;;5070637;28;20025;-65
2021/10/11 01:08:30;;;;;;;38.72;18.15;;;;;;;;;;5070398;28;20093;-65
2021/10/11 01:10:55;;;;;;;44.38;19.48;;;;;;;;;;5070468;28;20048;-64
2021/10/11 01:13:20;;;;;;;38.80;18.50;;;;;;;;;;5070041;28;20021;-64
2021/10/11 01:15:46;;;;;;;44.80;20.03;;;;;;;;;;5070591;28;20028;-64
2021/10/11 01:18:11;;;;;;;45.85;20.20;;;;;;;;;;5086447;28;20766;-64
2021/10/11 01:20:36;;;;;;;43.80;20.38;;;;;;;;;;5072720;28;20082;-65
2021/10/11 01:23:02;;;;;;;42.72;20.95;;;;;;;;;;5070105;28;20422;-64
2021/10/11 01:25:27;;;;;;;44.20;20.98;;;;;;;;;;5070105;28;20024;-65
2021/10/11 01:27:52;;;;;;;44.60;19.35;;;;;;;;;;5070676;28;20028;-64
2021/10/11 01:30:19;;;;;;;46.67;21.73;;;;;;;;;;5069902;28;20099;-64
2021/10/11 01:32:47;;;;;;;42.05;20.33;;;;;;;;;;5069895;28;20112;-64
2021/10/11 01:35:13;;;;;;;41.65;20.60;;;;;;;;;;5070215;28;20047;-65
2021/10/11 01:37:38;;;;;;;45.85;22.85;;;;;;;;;;5070086;28;20028;-64
2021/10/11 01:40:04;;;;;;;52.53;24.00;;;;;;;;;;5070311;28;20090;-63
2021/10/11 01:42:30;;;;;;;53.83;24.52;;;;;;;;;;5069925;28;20021;-65
2021/10/11 01:44:55;;;;;;;60.78;25.70;;;;;;;;;;5070190;28;20029;-65
2021/10/11 01:47:24;;;;;;;59.78;26.98;;;;;;;;;;5070081;28;20027;-65
2021/10/11 01:49:49;;;;;;;59.80;26.13;;;;;;;;;;5083792;28;20020;-64
2021/10/11 01:52:14;;;;;;;59.42;26.27;;;;;;;;;;5074932;28;20104;-64
2021/10/11 01:54:39;;;;;;;64.73;29.10;;;;;;;;;;5090303;28;20512;-65
2021/10/11 01:57:05;;;;;;;67.30;28.50;;;;;;;;;;5090600;28;20364;-64
2021/10/11 01:59:30;;;;;;;65.23;27.87;;;;;;;;;;5086219;28;20674;-65
2021/10/11 02:01:55;;;;;;;62.10;27.73;;;;;;;;;;5069935;28;20258;-64
2021/10/11 02:04:20;;;;;;;65.67;30.20;;;;;;;;;;5087481;28;20349;-64
2021/10/11 02:06:45;;;;;;;55.22;26.55;;;;;;;;;;5090446;28;20254;-64
2021/10/11 02:09:10;;;;;;;54.17;25.55;;;;;;;;;;5090787;28;20066;-64
2021/10/11 02:11:36;;;;;;;56.77;26.00;;;;;;;;;;5090591;28;20539;-64
2021/10/11 02:14:01;;;;;;;55.45;26.90;;;;;;;;;;5082755;28;20285;-63
2021/10/11 02:16:26;;;;;;;64.30;29.02;;;;;;;;;;5069889;28;20103;-65
2021/10/11 02:18:51;;;;;;;67.73;28.67;;;;;;;;;;5070120;28;20024;-65
2021/10/11 02:21:17;;;;;;;72.80;31.65;;;;;;;;;;5065776;28;20757;-65
2021/10/11 02:23:42;;;;;;;68.32;32.63;;;;;;;;;;5049629;28;20473;-63
2021/10/11 02:26:07;;;;;;;65.53;31.63;;;;;;;;;;5050175;28;20021;-65
2021/10/11 02:28:32;;;;;;;72.50;32.23;;;;;;;;;;5060301;28;20270;-64
2021/10/11 02:30:58;;;;;;;71.90;31.98;;;;;;;;;;5082969;28;20259;-65
2021/10/11 02:33:23;;;;;;;64.47;26.60;;;;;;;;;;5069578;28;20096;-65
2021/10/11 02:35:48;;;;;;;77.00;31.35;;;;;;;;;;5070301;28;20285;-64
2021/10/11 02:38:13;;;;;;;71.90;31.50;;;;;;;;;;5069976;28;20012;-65
2021/10/11 02:40:39;;;;;;;78.20;32.08;;;;;;;;;;5069963;28;20021;-65
2021/10/11 02:43:05;;;;;;;84.75;34.60;;;;;;;;;;5081799;28;20043;-64
2021/10/11 02:45:30;;;;;;;80.03;35.03;;;;;;;;;;5084107;28;20024;-64
2021/10/11 02:47:55;;;;;;;74.47;30.48;;;;;;;;;;5073865;28;20016;-65
2021/10/11 02:50:20;;;;;;;83.07;34.47;;;;;;;;;;5073816;28;20020;-64
2021/10/11 02:52:48;;;;;;;76.75;33.88;;;;;;;;;;5088911;28;20277;-65
2021/10/11 02:55:14;;;;;;;80.22;35.60;;;;;;;;;;5073575;28;20012;-64
2021/10/11 02:57:39;;;;;;;70.78;32.08;;;;;;;;;;5073173;28;20370;-64
2021/10/11 03:00:05;;;;;;;74.82;34.80;;;;;;;;;;5073156;28;20050;-64
2021/10/11 03:02:30;;;;;;;81.32;34.55;;;;;;;;;;5072978;28;20013;-65
2021/10/11 03:04:55;;;;;;;86.97;36.35;;;;;;;;;;5073192;28;20012;-64
2021/10/11 03:07:20;;;;;;;84.18;35.75;;;;;;;;;;5073244;28;20032;-64
2021/10/11 03:09:46;;;;;;;88.10;34.37;;;;;;;;;;5073163;28;20458;-64
2021/10/11 03:12:11;;;;;;;74.90;34.88;;;;;;;;;;5072800;28;20261;-65
2021/10/11 03:14:37;;;;;;;92.13;34.38;;;;;;;;;;5072623;28;20025;-65
2021/10/11 03:17:02;;;;;;;80.97;35.78;;;;;;;;;;5073154;28;20104;-64
2021/10/11 03:19:27;;;;;;;91.18;37.45;;;;;;;;;;5072959;28;20130;-64
2021/10/11 03:21:52;;;;;;;84.53;36.25;;;;;;;;;;5072993;28;20040;-65
2021/10/11 03:24:18;;;;;;;88.53;36.67;;;;;;;;;;5072760;28;20104;-64
2021/10/11 03:26:43;;;;;;;78.88;33.83;;;;;;;;;;5072940;28;20736;-65
2021/10/11 03:29:08;;;;;;;80.47;36.65;;;;;;;;;;5072679;28;20040;-63
2021/10/11 03:31:33;;;;;;;82.20;36.78;;;;;;;;;;5072922;28;20459;-65
2021/10/11 03:33:58;;;;;;;91.82;40.00;;;;;;;;;;5072454;28;20017;-63
2021/10/11 03:36:24;;;;;;;89.68;35.80;;;;;;;;;;5072509;28;20028;-65
2021/10/11 03:38:49;;;;;;;102.45;41.33;;;;;;;;;;5072578;28;20042;-64
2021/10/11 03:41:14;;;;;;;80.47;38.35;;;;;;;;;;5072339;28;20505;-64
2021/10/11 03:43:39;;;;;;;89.80;40.00;;;;;;;;;;5071825;28;20035;-64
2021/10/11 03:46:05;;;;;;;96.70;40.08;;;;;;;;;;5072440;28;20259;-65
2021/10/11 03:48:31;;;;;;;85.75;35.55;;;;;;;;;;5072182;28;20087;-64
2021/10/11 03:50:56;;;;;;;101.30;40.90;;;;;;;;;;5072449;28;20107;-64
2021/10/11 03:53:22;;;;;;;91.47;42.63;;;;;;;;;;5071658;28;20031;-64
2021/10/11 03:55:47;;;;;;;91.47;43.00;;;;;;;;;;5071945;28;20645;-65
2021/10/11 03:58:12;;;;;;;110.30;45.45;;;;;;;;;;5071204;28;20036;-64
2021/10/11 04:00:38;;;;;;;100.07;41.00;;;;;;;;;;5071986;28;20017;-64
2021/10/11 04:03:04;;;;;;;98.25;42.10;;;;;;;;;;5071661;28;20021;-64
2021/10/11 04:05:29;;;;;;;101.70;42.97;;;;;;;;;;5072011;28;20069;-64
2021/10/11 04:07:58;;;;;;;100.50;42.65;;;;;;;;;;5072077;28;20555;-65
2021/10/11 04:10:28;;;;;;;99.65;43.95;;;;;;;;;;5071772;28;20046;-63
2021/10/11 04:12:57;;;;;;;107.65;43.92;;;;;;;;;;5071747;28;20430;-65
2021/10/11 04:15:22;;;;;;;94.47;40.35;;;;;;;;;;5071805;28;20029;-64
2021/10/11 04:17:48;;;;;;;92.43;39.92;;;;;;;;;;5071743;28;20031;-65
2021/10/11 04:20:14;;;;;;;84.20;35.03;;;;;;;;;;5071827;28;20100;-65
2021/10/11 04:22:39;;;;;;;98.07;41.33;;;;;;;;;;5070825;28;20093;-65
2021/10/11 04:25:04;;;;;;;88.77;40.57;;;;;;;;;;5071021;28;20028;-65
2021/10/11 04:27:29;;;;;;;98.78;41.92;;;;;;;;;;5071460;28;20337;-65
2021/10/11 04:29:55;;;;;;;94.15;40.20;;;;;;;;;;5071316;28;20024;-65
2021/10/11 04:32:20;;;;;;;106.97;42.70;;;;;;;;;;5070142;28;20021;-64
2021/10/11 04:34:45;;;;;;;102.63;44.93;;;;;;;;;;5078165;28;20031;-64
2021/10/11 04:37:10;;;;;;;103.43;42.77;;;;;;;;;;5091323;28;20313;-65
2021/10/11 04:39:35;;;;;;;110.03;47.00;;;;;;;;;;5081475;28;20324;-65
2021/10/11 04:42:00;;;;;;;112.28;47.63;;;;;;;;;;5070898;28;20013;-65
2021/10/11 04:44:27;;;;;;;122.32;51.25;;;;;;;;;;5071106;28;20021;-65
2021/10/11 04:46:52;;;;;;;124.70;49.63;;;;;;;;;;5071135;28;20029;-64
2021/10/11 04:49:17;;;;;;;126.72;50.35;;;;;;;;;;5082504;28;20024;-65
2021/10/11 04:51:42;;;;;;;122.53;51.58;;;;;;;;;;5091316;28;20061;-63
2021/10/11 04:54:09;;;;;;;119.38;52.78;;;;;;;;;;5078400;28;20066;-63
2021/10/11 04:56:34;;;;;;;119.28;51.42;;;;;;;;;;5070978;28;20021;-62
2021/10/11 04:58:59;;;;;;;128.25;51.30;;;;;;;;;;5070818;28;20577;-63
2021/10/11 05:01:25;;;;;;;119.82;49.10;;;;;;;;;;5070868;28;20443;-63
2021/10/11 05:03:50;;;;;;;127.22;48.47;;;;;;;;;;5069861;28;20027;-63
2021/10/11 05:06:15;;;;;;;110.90;42.80;;;;;;;;;;5070186;28;20024;-63
2021/10/11 05:08:40;;;;;;;116.43;46.63;;;;;;;;;;5070405;28;20370;-66
2021/10/11 05:11:05;;;;;;;122.32;48.13;;;;;;;;;;5070499;28;20392;-62
2021/10/11 05:13:31;;;;;;;109.50;43.80;;;;;;;;;;5070292;28;20019;-64
2021/10/11 05:15:56;;;;;;;112.38;45.97;;;;;;;;;;5070740;28;20062;-64
2021/10/11 05:18:21;;;;;;;110.97;45.50;;;;;;;;;;5070430;28;20077;-64
2021/10/11 05:20:50;;;;;;;111.75;43.10;;;;;;;;;;5070322;28;20028;-64
2021/10/11 05:23:15;;;;;;;104.68;45.60;;;;;;;;;;5062511;28;20358;-64
2021/10/11 05:25:40;;;;;;;99.93;41.35;;;;;;;;;;5070661;28;20229;-63
2021/10/11 05:28:06;;;;;;;111.67;45.50;;;;;;;;;;5070541;28;20043;-63
2021/10/11 05:30:31;;;;;;;109.32;42.70;;;;;;;;;;5070755;28;20336;-64
2021/10/11 05:32:56;;;;;;;99.93;42.87;;;;;;;;;;5070184;28;20465;-63
2021/10/11 05:35:21;;;;;;;99.53;43.90;;;;;;;;;;5070540;28;20287;-63
2021/10/11 05:37:47;;;;;;;108.43;44.65;;;;;;;;;;5069664;28;20050;-64
2021/10/11 05:40:12;;;;;;;103.53;43.05;;;;;;;;;;5070181;28;20122;-65
2021/10/11 05:42:37;;;;;;;93.93;40.58;;;;;;;;;;5069757;28;20028;-63
2021/10/11 05:45:03;;;;;;;97.25;43.03;;;;;;;;;;5069736;28;20479;-63
2021/10/11 05:47:28;;;;;;;94.43;41.35;;;;;;;;;;5070154;28;20035;-64
2021/10/11 05:49:54;;;;;;;101.53;42.70;;;;;;;;;;5069852;28;20067;-63
2021/10/11 05:52:19;;;;;;;98.45;42.10;;;;;;;;;;5069707;28;20023;-63
2021/10/11 05:54:44;;;;;;;97.75;42.30;;;;;;;;;;5069924;28;20503;-64
2021/10/11 05:57:09;;;;;;;100.73;41.83;;;;;;;;;;5070107;28;20024;-63
2021/10/11 05:59:34;;;;;;;91.65;43.00;;;;;;;;;;5069860;28;20301;-64
2021/10/11 06:02:00;;;;;;;102.65;44.10;;;;;;;;;;5069751;28;20101;-63
2021/10/11 06:04:25;;;;;;;112.10;43.28;;;;;;;;;;5069587;28;20020;-64
2021/10/11 06:06:50;;;;;;;98.38;43.30;;;;;;;;;;5069867;28;20483;-65
2021/10/11 06:09:18;;;;;;;98.55;43.63;;;;;;;;;;5069741;28;20067;-63
2021/10/11 06:11:43;;;;;;;101.03;43.55;;;;;;;;;;5070105;28;20033;-64
2021/10/11 06:14:08;;;;;;;97.88;42.22;;;;;;;;;;5069629;28;20362;-64
2021/10/11 06:16:33;;;;;;;110.60;44.17;;;;;;;;;;5072491;28;20016;-66
2021/10/11 06:18:59;;;;;;;110.47;45.08;;;;;;;;;;5073409;28;20016;-63
2021/10/11 06:21:24;;;;;;;109.15;45.20;;;;;;;;;;5073972;28;20028;-64
2021/10/11 06:23:51;;;;;;;110.05;45.00;;;;;;;;;;5073373;28;20451;-64
2021/10/11 06:26:16;;;;;;;105.38;43.83;;;;;;;;;;5073464;28;20040;-63
2021/10/11 06:28:42;;;;;;;116.78;47.00;;;;;;;;;;5073816;28;20064;-63
2021/10/11 06:31:07;;;;;;;109.82;44.78;;;;;;;;;;5073598;28;20483;-63
2021/10/11 06:33:32;;;;;;;119.55;46.63;;;;;;;;;;5073106;28;20052;-63
2021/10/11 06:35:57;;;;;;;123.45;46.92;;;;;;;;;;5073531;28;20036;-63
2021/10/11 06:38:22;;;;;;;108.40;46.00;;;;;;;;;;5073592;28;20028;-63
2021/10/11 06:40:50;;;;;;;107.75;43.80;;;;;;;;;;5073305;28;20018;-65
2021/10/11 06:43:16;;;;;;;106.47;41.00;;;;;;;;;;5073108;28;20024;-64
2021/10/11 06:45:41;;;;;;;104.35;44.72;;;;;;;;;;5079833;22;20036;-83
2021/10/11 06:48:06;;;;;;;105.22;44.10;;;;;;;;;;5052958;28;20028;-83
2021/10/11 06:50:31;;;;;;;99.73;42.50;;;;;;;;;;5072537;28;20055;-84
2021/10/11 06:52:57;;;;;;;104.68;41.15;;;;;;;;;;5035517;28;20631;-83
2021/10/11 06:55:22;;;;;;;101.60;42.22;;;;;;;;;;5053339;28;20024;-85
2021/10/11 06:57:47;;;;;;;100.93;43.97;;;;;;;;;;5062745;28;20033;-84
2021/10/11 07:00:13;;;;;;;101.55;43.65;;;;;;;;;;5033668;28;20017;-84
2021/10/11 07:02:38;;;;;;;102.85;43.13;;;;;;;;;;5047623;28;20557;-84
2021/10/11 07:05:10;;;;;;;104.20;44.83;;;;;;;;;;5071338;28;20058;-84
2021/10/11 07:07:36;;;;;;;101.78;43.28;;;;;;;;;;5053469;28;20029;-84
2021/10/11 07:10:03;;;;;;;107.60;45.70;;;;;;;;;;5053417;28;20024;-84
2021/10/11 07:12:28;;;;;;;112.72;45.22;;;;;;;;;;5053400;28;20377;-84
2021/10/11 07:14:53;;;;;;;104.45;43.97;;;;;;;;;;5054086;28;20028;-84
2021/10/11 07:17:18;;;;;;;100.38;42.47;;;;;;;;;;5043574;28;20067;-84
2021/10/11 07:19:46;;;;;;;106.72;46.67;;;;;;;;;;5050311;28;20021;-84
2021/10/11 07:22:15;;;;;;;106.22;46.10;;;;;;;;;;5070138;28;20538;-85
2021/10/11 07:24:43;;;;;;;111.55;44.30;;;;;;;;;;5071105;28;20016;-84
2021/10/11 07:27:09;;;;;;;114.15;44.83;;;;;;;;;;5051699;28;20063;-84
2021/10/11 07:29:35;;;;;;;104.15;39.92;;;;;;;;;;5052940;28;20051;-84
2021/10/11 07:32:00;;;;;;;111.70;43.78;;;;;;;;;;5049938;28;20031;-84
2021/10/11 07:34:25;;;;;;;111.90;47.53;;;;;;;;;;5053086;28;20023;-84
2021/10/11 07:36:51;;;;;;;114.65;47.22;;;;;;;;;;5052968;28;20029;-84
2021/10/11 07:39:16;;;;;;;106.50;43.67;;;;;;;;;;5052023;28;20495;-84
2021/10/11 07:41:41;;;;;;;107.80;43.17;;;;;;;;;;5052582;28;20021;-84
2021/10/11 07:44:06;;;;;;;104.80;43.60;;;;;;;;;;5069961;28;20263;-84
2021/10/11 07:46:31;;;;;;;114.82;47.25;;;;;;;;;;5052629;28;20281;-84
2021/10/11 07:48:57;;;;;;;127.43;45.33;;;;;;;;;;5070410;28;20097;-84
2021/10/11 07:51:22;;;;;;;115.93;44.25;;;;;;;;;;5052889;28;20028;-84
2021/10/11 07:53:47;;;;;;;113.55;45.83;;;;;;;;;;5051816;28;20017;-84
2021/10/11 07:56:12;;;;;;;96.80;43.20;;;;;;;;;;5052835;28;20111;-84
2021/10/11 07:58:38;;;;;;;110.15;45.85;;;;;;;;;;5052551;28;20016;-84
2021/10/11 08:01:03;;;;;;;100.88;48.33;;;;;;;;;;5053005;28;20028;-85
2021/10/11 08:03:28;;;;;;;90.80;40.67;;;;;;;;;;5052785;28;20496;-85
2021/10/11 08:05:54;;;;;;;103.97;45.35;;;;;;;;;;5053347;28;20012;-84
2021/10/11 08:08:19;;;;;;;119.03;50.35;;;;;;;;;;5072426;28;20021;-85
2021/10/11 08:10:46;;;;;;;118.72;46.85;;;;;;;;;;5072703;28;20040;-85
2021/10/11 08:13:11;;;;;;;106.05;44.75;;;;;;;;;;5054364;28;20119;-84
2021/10/11 08:15:36;;;;;;;110.20;44.20;;;;;;;;;;5054753;28;20691;-84
2021/10/11 08:18:01;;;;;;;111.47;47.00;;;;;;;;;;5055024;28;20107;-84
2021/10/11 08:20:26;;;;;;;110.45;47.20;;;;;;;;;;5055263;28;20666;-85
2021/10/11 08:22:55;;;;;;;99.70;44.03;;;;;;;;;;5054371;28;20017;-84
2021/10/11 08:25:22;;;;;;;99.70;43.38;;;;;;;;;;5048148;28;20255;-84
2021/10/11 08:27:48;;;;;;;106.05;47.08;;;;;;;;;;5052207;28;20408;-85
2021/10/11 08:30:13;;;;;;;98.78;43.90;;;;;;;;;;5051571;28;20020;-84
2021/10/11 08:32:38;;;;;;;101.13;43.53;;;;;;;;;;5040768;28;20112;-85
2021/10/11 08:35:04;;;;;;;93.00;44.30;;;;;;;;;;5041152;28;20022;-84
2021/10/11 08:37:29;;;;;;;88.97;42.33;;;;;;;;;;5057459;28;20024;-84
2021/10/11 08:39:54;;;;;;;88.88;41.28;;;;;;;;;;5050791;28;20056;-85
2021/10/11 08:42:21;;;;;;;90.70;42.10;;;;;;;;;;5070665;28;20095;-85
2021/10/11 08:44:47;;;;;;;87.28;42.33;;;;;;;;;;5070853;28;20504;-84
2021/10/11 08:47:13;;;;;;;83.22;39.97;;;;;;;;;;5071041;28;20071;-85
2021/10/11 08:49:42;;;;;;;91.43;40.85;;;;;;;;;;5052213;28;20035;-85
2021/10/11 08:52:08;;;;;;;97.07;42.13;;;;;;;;;;5051459;28;20024;-85
2021/10/11 08:54:34;;;;;;;82.35;38.67;;;;;;;;;;5052825;28;20025;-85
2021/10/11 08:56:59;;;;;;;79.18;39.33;;;;;;;;;;5052316;28;20028;-86
2021/10/11 08:59:31;;;;;;;80.97;38.97;;;;;;;;;;5085159;28;20476;-86
2021/10/11 09:02:03;;;;;;;72.85;37.40;;;;;;;;;;5067984;28;20107;-85
2021/10/11 09:04:28;;;;;;;78.53;37.55;;;;;;;;;;5086796;28;20032;-85
2021/10/11 09:07:06;;;;;;;74.33;35.80;;;;;;;;;;5067640;28;20032;-85
2021/10/11 09:09:43;;;;;;;71.07;36.25;;;;;;;;;;5084475;28;20259;-85
2021/10/11 09:12:14;;;;;;;65.60;33.85;;;;;;;;;;5054447;28;20517;-86
2021/10/11 09:14:40;;;;;;;68.00;32.80;;;;;;;;;;5070556;28;20102;-83
2021/10/11 09:17:05;;;;;;;62.85;28.90;;;;;;;;;;5051994;28;20503;-83
2021/10/11 09:19:31;;;;;;;56.45;28.20;;;;;;;;;;5052711;28;20487;-86
2021/10/11 09:21:56;;;;;;;46.75;22.38;;;;;;;;;;5052456;28;20050;-85
2021/10/11 09:24:22;;;;;;;55.65;26.42;;;;;;;;;;5054344;28;20090;-85
2021/10/11 09:26:48;;;;;;;61.92;27.23;;;;;;;;;;5053593;28;20418;-86
2021/10/11 09:29:14;;;;;;;54.45;25.50;;;;;;;;;;5053862;28;20538;-85
2021/10/11 09:31:42;;;;;;;50.65;22.60;;;;;;;;;;5070855;28;20021;-86
2021/10/11 09:34:08;;;;;;;53.17;22.88;;;;;;;;;;5054919;28;20537;-85
2021/10/11 09:36:34;;;;;;;46.67;19.92;;;;;;;;;;5052392;28;20115;-85
2021/10/11 09:39:00;;;;;;;41.22;18.65;;;;;;;;;;5051141;28;20032;-86
2021/10/11 09:41:26;;;;;;;49.30;20.30;;;;;;;;;;5072270;28;20066;-86
2021/10/11 09:43:51;;;;;;;55.03;22.17;;;;;;;;;;5050723;28;20016;-85
2021/10/11 09:46:18;;;;;;;48.67;22.02;;;;;;;;;;5051829;28;20020;-85
2021/10/11 09:48:47;;;;;;;44.53;20.45;;;;;;;;;;5051356;28;20021;-85
2021/10/11 09:51:12;;;;;;;48.97;22.27;;;;;;;;;;5051080;28;20028;-85
2021/10/11 09:53:38;;;;;;;35.58;15.50;;;;;;;;;;5069276;28;20595;-85
2021/10/11 09:56:03;;;;;;;40.03;16.92;;;;;;;;;;5052363;28;20059;-85
2021/10/11 09:58:28;;;;;;;40.03;15.43;;;;;;;;;;5052589;28;20078;-85
2021/10/11 10:00:54;;;;;;;31.52;11.85;;;;;;;;;;5051838;28;20020;-86
2021/10/11 10:03:19;;;;;;;27.70;9.95;;;;;;;;;;5051695;28;20472;-86
2021/10/11 10:05:46;;;;;;;27.10;9.35;;;;;;;;;;5071119;28;20028;-86
2021/10/11 10:08:13;;;;;;;25.67;6.93;;;;;;;;;;5057811;28;20031;-86
2021/10/11 10:10:39;;;;;;;26.65;6.40;;;;;;;;;;5051848;28;20020;-86
2021/10/11 10:13:18;;;;;;;21.05;4.72;;;;;;;;;;5050722;28;20032;-86
2021/10/11 10:15:44;;;;;;;15.30;4.35;;;;;;;;;;5052065;28;20025;-85
2021/10/11 10:18:12;;;;;;;20.98;5.03;;;;;;;;;;5051984;28;20432;-85
2021/10/11 10:20:48;;;;;;;16.13;3.58;;;;;;;;;;5069743;28;20048;-85
2021/10/11 10:23:22;;;;;;;19.92;3.85;;;;;;;;;;5053696;28;20468;-85
2021/10/11 10:25:47;;;;;;;13.10;3.33;;;;;;;;;;5051685;28;20019;-85
2021/10/11 10:28:14;;;;;;;19.20;2.80;;;;;;;;;;5069400;28;20111;-85
2021/10/11 10:30:39;;;;;;;18.27;3.08;;;;;;;;;;5069302;28;20027;-85
2021/10/11 10:33:06;;;;;;;16.23;3.03;;;;;;;;;;5051558;28;20032;-85
2021/10/11 10:35:33;;;;;;;17.85;3.13;;;;;;;;;;5054228;28;20020;-85
2021/10/11 10:37:58;;;;;;;14.63;2.60;;;;;;;;;;5055118;28;20099;-85
2021/10/11 10:40:25;;;;;;;27.23;3.28;;;;;;;;;;5051422;28;20116;-85
2021/10/11 10:42:50;;;;;;;25.05;3.08;;;;;;;;;;5069182;28;20100;-85
2021/10/11 10:45:18;;;;;;;19.20;3.00;;;;;;;;;;5051340;28;20060;-86
2021/10/11 10:47:43;;;;;;;14.18;2.92;;;;;;;;;;5051767;28;20028;-86
2021/10/11 10:50:13;;;;;;;16.75;2.70;;;;;;;;;;5051137;28;20047;-87
2021/10/11 10:52:38;;;;;;;13.77;2.70;;;;;;;;;;5051608;28;20017;-86
2021/10/11 10:55:04;;;;;;;19.33;2.65;;;;;;;;;;5050329;28;20047;-86
2021/10/11 10:57:30;;;;;;;13.60;2.13;;;;;;;;;;5069211;28;20017;-85
2021/10/11 11:00:00;;;;;;;22.83;3.33;;;;;;;;;;5050756;28;20025;-86
2021/10/11 11:02:26;;;;;;;15.95;2.05;;;;;;;;;;5050400;28;20025;-85
2021/10/11 11:04:55;;;;;;;12.05;1.90;;;;;;;;;;5072497;28;20095;-85
2021/10/11 11:07:24;;;;;;;14.65;2.92;;;;;;;;;;5054367;28;20089;-86
2021/10/11 11:09:50;;;;;;;19.00;1.98;;;;;;;;;;5054218;28;20021;-85
2021/10/11 11:12:26;;;;;;;20.80;2.90;;;;;;;;;;5053712;28;20030;-85
2021/10/11 11:14:52;;;;;;;23.23;2.72;;;;;;;;;;5071837;28;20274;-85
2021/10/11 11:17:26;;;;;;;15.65;2.17;;;;;;;;;;5072585;28;20024;-85
2021/10/11 11:19:51;;;;;;;21.67;2.45;;;;;;;;;;5054094;28;20021;-84
2021/10/11 11:22:26;;;;;;;20.15;1.73;;;;;;;;;;5071485;28;20025;-86
2021/10/11 11:24:51;;;;;;;11.43;2.28;;;;;;;;;;5071435;28;20468;-85
2021/10/11 11:27:26;;;;;;;20.70;3.08;;;;;;;;;;5053494;28;20081;-85
2021/10/11 11:29:53;;;;;;;16.95;5.03;;;;;;;;;;5053372;28;20047;-85
2021/10/11 11:32:18;;;;;;;23.73;3.63;;;;;;;;;;5071300;28;20021;-86
2021/10/11 11:34:43;;;;;;;14.80;3.58;;;;;;;;;;5072874;28;20035;-86
2021/10/11 11:37:10;;;;;;;15.77;2.67;;;;;;;;;;5072413;28;20059;-84
2021/10/11 11:39:36;;;;;;;12.05;1.92;;;;;;;;;;5054492;28;20051;-85
2021/10/11 11:42:01;;;;;;;15.37;2.17;;;;;;;;;;5053997;28;20020;-84
2021/10/11 11:44:26;;;;;;;14.73;3.80;;;;;;;;;;5038873;28;20264;-85
2021/10/11 11:47:02;;;;;;;23.40;3.42;;;;;;;;;;5057534;28;20067;-84
2021/10/11 11:49:27;;;;;;;15.43;2.55;;;;;;;;;;5054509;28;20069;-86
2021/10/11 11:52:02;;;;;;;15.73;2.05;;;;;;;;;;5072758;28;20107;-85
2021/10/11 11:54:27;;;;;;;16.92;2.10;;;;;;;;;;5053821;28;20051;-85
2021/10/11 11:56:55;;;;;;;11.50;2.33;;;;;;;;;;5053184;28;20050;-84
2021/10/11 11:59:21;;;;;;;14.90;2.80;;;;;;;;;;5053394;28;20929;-85
2021/10/11 12:01:46;;;;;;;15.95;1.88;;;;;;;;;;5052127;28;20013;-84
2021/10/11 12:04:12;;;;;;;15.00;2.78;;;;;;;;;;5053836;28;20020;-84
2021/10/11 12:06:37;;;;;;;13.55;2.03;;;;;;;;;;5047409;28;20021;-85
2021/10/11 12:09:03;;;;;;;16.98;2.30;;;;;;;;;;5057277;28;20017;-85
2021/10/11 12:11:30;;;;;;;13.60;2.03;;;;;;;;;;5066796;28;20074;-84
2021/10/11 12:13:56;;;;;;;12.95;2.50;;;;;;;;;;5066755;28;20031;-85
2021/10/11 12:16:21;;;;;;;16.15;1.45;;;;;;;;;;5075511;28;20025;-85
2021/10/11 12:18:48;;;;;;;15.23;2.03;;;;;;;;;;5071537;28;20092;-85
2021/10/11 12:21:24;;;;;;;9.57;2.15;;;;;;;;;;5053718;28;20035;-86
2021/10/11 12:23:50;;;;;;;16.02;2.20;;;;;;;;;;5066652;22;20436;-66
2021/10/11 12:26:15;;;;;;;14.70;3.67;;;;;;;;;;5043415;28;20018;-65
2021/10/11 12:28:53;;;;;;;17.88;2.78;;;;;;;;;;5051731;28;20048;-69
2021/10/11 12:31:19;;;;;;;6.18;1.50;;;;;;;;;;5051762;28;20036;-70
2021/10/11 12:33:44;;;;;;;9.73;1.83;;;;;;;;;;5051494;28;20107;-70
2021/10/11 12:36:12;;;;;;;14.75;1.60;;;;;;;;;;5051605;28;20151;-66
2021/10/11 12:38:38;;;;;;;13.05;1.80;;;;;;;;;;5051086;28;20017;-66
2021/10/11 12:41:30;;;;;;;7.57;2.08;;;;;;;;;;5051232;28;20040;-67
2021/10/11 12:43:57;;;;;;;18.17;1.67;;;;;;;;;;5044231;28;20037;-67
2021/10/11 12:46:22;;;;;;;15.35;2.28;;;;;;;;;;5051266;28;20017;-66
2021/10/11 12:48:54;;;;;;;6.80;1.60;;;;;;;;;;5051072;28;20028;-68
2021/10/11 12:51:23;;;;;;;10.60;1.75;;;;;;;;;;5051290;28;20021;-68
2021/10/11 12:53:58;;;;;;;13.48;1.65;;;;;;;;;;5050544;28;20043;-67
2021/10/11 12:56:23;;;;;;;10.88;1.83;;;;;;;;;;5051188;28;20071;-69
2021/10/11 12:58:55;;;;;;;9.45;1.63;;;;;;;;;;5040265;28;20398;-68
2021/10/11 13:01:20;;;;;;;8.20;1.52;;;;;;;;;;5050872;28;20025;-66
2021/10/11 13:03:45;;;;;;;16.02;2.55;;;;;;;;;;5050165;28;20143;-66
2021/10/11 13:06:18;;;;;;;13.77;2.17;;;;;;;;;;5050505;28;20082;-66
2021/10/11 13:08:43;;;;;;;17.58;2.13;;;;;;;;;;5066067;28;20271;-66
2021/10/11 13:11:09;;;;;;;11.27;1.77;;;;;;;;;;5070789;28;20051;-66
2021/10/11 13:13:34;;;;;;;6.73;1.97;;;;;;;;;;5070470;28;20473;-69
2021/10/11 13:16:03;;;;;;;8.23;1.90;;;;;;;;;;5070812;28;20258;-66
2021/10/11 13:18:28;;;;;;;17.52;1.85;;;;;;;;;;5062242;28;20300;-68
2021/10/11 13:20:53;;;;;;;9.97;2.27;;;;;;;;;;5032934;28;20025;-66
2021/10/11 13:23:18;;;;;;;9.03;1.40;;;;;;;;;;5050266;28;20740;-68
2021/10/11 13:25:44;;;;;;;20.15;2.05;;;;;;;;;;5049689;28;20274;-66
2021/10/11 13:28:09;;;;;;;14.05;1.90;;;;;;;;;;5050614;28;20040;-68
2021/10/11 14:32:48;;;;;;;8.80;2.58;;;;;;;;;;5035647;28;20325;-68
2021/10/11 15:59:46;;;;;;;23.25;2.60;;;;;;;;;;5072092;28;20082;-66
2021/10/11 16:04:59;;;;;;;12.85;1.75;;;;;;;;;;5072268;28;20047;-65
2021/10/11 16:07:24;;;;;;;11.07;2.17;;;;;;;;;;5072167;28;20096;-66
2021/10/11 16:09:50;;;;;;;9.77;2.47;;;;;;;;;;5071846;28;20047;-65
2021/10/11 16:12:16;;;;;;;12.48;1.85;;;;;;;;;;5065492;28;20025;-65
2021/10/11 16:14:41;;;;;;;14.50;2.80;;;;;;;;;;5052008;28;20370;-65
2021/10/11 16:17:07;;;;;;;12.65;2.80;;;;;;;;;;5052448;28;20393;-66
2021/10/11 16:19:32;;;;;;;26.77;4.18;;;;;;;;;;5052329;28;20104;-65
2021/10/11 16:21:58;;;;;;;18.27;3.17;;;;;;;;;;5051395;28;20092;-63
2021/10/11 16:24:23;;;;;;;20.05;2.42;;;;;;;;;;5054075;28;20461;-65
2021/10/11 16:26:49;;;;;;;17.23;2.75;;;;;;;;;;5071557;28;20048;-65
2021/10/11 16:29:14;;;;;;;19.20;3.85;;;;;;;;;;5071498;28;20017;-65
2021/10/11 16:31:40;;;;;;;11.63;2.63;;;;;;;;;;5071514;28;20028;-65
2021/10/11 16:34:05;;;;;;;18.88;2.58;;;;;;;;;;5070844;28;20032;-65
2021/10/11 16:36:30;;;;;;;8.52;1.85;;;;;;;;;;5071542;28;20456;-65
2021/10/11 16:38:56;;;;;;;24.88;2.70;;;;;;;;;;5071182;28;20397;-65
2021/10/11 16:41:21;;;;;;;12.80;2.38;;;;;;;;;;5070679;28;20476;-65